createdAt,value
2023-01-11T00:02:11.914Z,2.72
2023-01-11T00:04:39.524Z,2.97
2023-01-11T00:07:07.065Z,3.58
2023-01-11T00:09:34.559Z,2.60
2023-01-11T00:12:02.081Z,2.78
2023-01-11T00:14:30.878Z,2.53
2023-01-11T00:16:59.718Z,2.85
2023-01-11T00:19:27.461Z,2.20
2023-01-11T00:21:54.936Z,3.00
2023-01-11T00:24:22.422Z,2.65
2023-01-11T00:26:49.888Z,2.47
2023-01-11T00:29:17.494Z,2.85
2023-01-11T00:31:46.304Z,2.95
2023-01-11T00:34:13.805Z,2.78
2023-01-11T00:36:41.307Z,2.72
2023-01-11T00:39:08.827Z,3.00
2023-01-11T00:41:54.134Z,2.72
2023-01-11T00:44:39.083Z,2.58
2023-01-11T00:47:30.530Z,2.90
2023-01-11T00:49:57.993Z,2.72
2023-01-11T00:52:25.488Z,3.35
2023-01-11T00:54:53.126Z,2.60
2023-01-11T00:57:20.669Z,2.90
2023-01-11T00:59:48.153Z,1.85
2023-01-11T01:02:17.039Z,2.10
2023-01-11T01:04:44.534Z,2.25
2023-01-11T01:07:12.580Z,2.03
2023-01-11T01:09:40.073Z,2.92
2023-01-11T01:12:09.163Z,2.75
2023-01-11T01:14:36.418Z,2.90
2023-01-11T01:17:07.097Z,2.50
2023-01-11T01:19:37.245Z,2.75
2023-01-11T01:22:04.803Z,2.75
2023-01-11T01:24:33.928Z,2.60
2023-01-11T01:27:01.520Z,2.80
2023-01-11T01:29:29.018Z,3.00
2023-01-11T01:31:56.483Z,3.00
2023-01-11T01:34:23.967Z,2.88
2023-01-11T01:36:52.794Z,2.60
2023-01-11T01:39:20.287Z,2.58
2023-01-11T01:41:47.767Z,2.33
2023-01-11T01:44:53.671Z,2.42
2023-01-11T01:47:22.872Z,2.55
2023-01-11T01:49:50.355Z,2.75
2023-01-11T01:52:19.363Z,2.58
2023-01-11T01:54:48.728Z,2.60
2023-01-11T01:57:20.417Z,2.60
2023-01-11T01:59:51.638Z,1.88
2023-01-11T02:02:20.545Z,2.30
2023-01-11T02:04:48.909Z,2.35
2023-01-11T02:07:20.843Z,2.17
2023-01-11T02:09:52.361Z,2.42
2023-01-11T02:12:19.965Z,2.90
2023-01-11T02:14:48.447Z,2.40
2023-01-11T02:17:16.141Z,2.50
2023-01-11T02:19:53.968Z,1.92
2023-01-11T02:22:53.319Z,2.40
2023-01-11T02:25:40.111Z,2.55
2023-01-11T02:28:12.004Z,2.47
2023-01-11T02:30:45.533Z,2.80
2023-01-11T02:33:19.451Z,2.47
2023-01-11T02:35:53.218Z,2.40
2023-01-11T02:38:27.427Z,2.50
2023-01-11T02:41:00.211Z,2.58
2023-01-11T02:43:50.452Z,2.05
2023-01-11T02:46:23.626Z,2.30
2023-01-11T02:48:55.481Z,2.47
2023-01-11T02:51:26.589Z,2.25
2023-01-11T02:53:56.071Z,2.40
2023-01-11T02:56:26.467Z,2.38
2023-01-11T02:58:56.927Z,1.90
2023-01-11T03:01:25.585Z,2.33
2023-01-11T03:03:54.042Z,1.95
2023-01-11T03:06:23.129Z,2.08
2023-01-11T03:09:11.185Z,2.10
2023-01-11T03:12:06.579Z,2.00
2023-01-11T03:14:45.134Z,2.08
2023-01-11T03:17:20.522Z,1.90
2023-01-11T03:19:51.417Z,2.08
2023-01-11T03:22:25.484Z,1.88
2023-01-11T03:24:56.931Z,1.63
2023-01-11T03:27:32.539Z,1.85
2023-01-11T03:30:06.303Z,1.92
2023-01-11T03:32:38.402Z,2.13
2023-01-11T03:35:13.940Z,2.20
2023-01-11T03:37:43.532Z,2.30
2023-01-11T03:40:14.753Z,2.03
2023-01-11T03:42:59.135Z,1.95
2023-01-11T03:45:29.400Z,2.40
2023-01-11T03:47:58.205Z,2.13
2023-01-11T03:50:26.943Z,2.22
2023-01-11T03:52:54.813Z,2.65
2023-01-11T03:55:26.516Z,2.60
2023-01-11T03:57:55.033Z,2.42
2023-01-11T04:00:23.721Z,2.90
2023-01-11T04:02:53.931Z,2.78
2023-01-11T04:05:21.516Z,2.45
2023-01-11T04:07:49.031Z,2.42
2023-01-11T04:10:16.971Z,2.90
2023-01-11T04:12:59.438Z,2.55
2023-01-11T04:15:26.936Z,2.83
2023-01-11T04:17:56.195Z,2.22
2023-01-11T04:20:23.649Z,2.55
2023-01-11T04:22:51.104Z,3.20
2023-01-11T04:25:18.688Z,2.70
2023-01-11T04:27:46.157Z,2.53
2023-01-11T04:30:14.060Z,2.67
2023-01-11T04:32:41.722Z,2.55
2023-01-11T04:35:10.736Z,2.75
2023-01-11T04:37:38.252Z,2.75
2023-01-11T04:40:06.941Z,3.10
2023-01-11T04:42:33.503Z,2.15
2023-01-11T04:45:00.981Z,2.38
2023-01-11T04:47:28.649Z,2.20
2023-01-11T04:49:56.163Z,2.70
2023-01-11T04:52:24.961Z,2.53
2023-01-11T04:54:53.953Z,3.40
2023-01-11T04:57:21.493Z,3.30
2023-01-11T04:59:49.401Z,3.92
2023-01-11T05:02:17.537Z,3.90
2023-01-11T05:04:45.363Z,4.18
2023-01-11T05:07:12.886Z,3.40
2023-01-11T05:09:41.690Z,2.75
2023-01-11T05:12:09.172Z,3.72
2023-01-11T05:14:36.640Z,4.55
2023-01-11T05:17:04.392Z,4.70
2023-01-11T05:19:31.857Z,3.65
2023-01-11T05:21:59.317Z,3.70
2023-01-11T05:24:26.788Z,4.80
2023-01-11T05:26:55.605Z,4.72
2023-01-11T05:29:23.310Z,5.20
2023-01-11T05:31:50.914Z,3.33
2023-01-11T05:34:18.890Z,4.53
2023-01-11T05:36:46.426Z,3.58
2023-01-11T05:39:14.556Z,4.35
2023-01-11T05:41:42.019Z,3.42
2023-01-11T05:44:30.133Z,3.17
2023-01-11T05:46:57.594Z,3.17
2023-01-11T05:49:25.169Z,2.92
2023-01-11T05:51:53.135Z,3.28
2023-01-11T05:54:20.640Z,2.03
2023-01-11T05:56:48.151Z,2.90
2023-01-11T05:59:17.008Z,2.47
2023-01-11T06:01:45.491Z,3.20
2023-01-11T06:04:13.023Z,2.60
2023-01-11T06:06:40.959Z,4.05
2023-01-11T06:09:08.508Z,3.35
2023-01-11T06:11:36.029Z,3.92
2023-01-11T06:14:03.512Z,4.15
2023-01-11T06:16:32.377Z,3.40
2023-01-11T06:18:59.885Z,3.67
2023-01-11T06:21:27.489Z,3.40
2023-01-11T06:23:55.347Z,3.88
2023-01-11T06:26:24.002Z,5.50
2023-01-11T06:28:51.974Z,5.10
2023-01-11T06:31:20.285Z,3.45
2023-01-11T06:33:49.160Z,6.85
2023-01-11T06:36:16.693Z,3.05
2023-01-11T06:38:44.401Z,7.20
2023-01-11T06:41:12.806Z,9.50
2023-01-11T06:43:41.787Z,3.38
2023-01-11T06:46:13.384Z,4.88
2023-01-11T06:48:41.177Z,6.00
2023-01-11T06:51:12.008Z,5.45
2023-01-11T06:53:40.331Z,4.72
2023-01-11T06:56:08.867Z,5.57
2023-01-11T06:58:37.706Z,4.93
2023-01-11T07:01:05.493Z,4.93
2023-01-11T07:03:33.106Z,3.53
2023-01-11T07:06:00.603Z,4.20
2023-01-11T07:08:29.411Z,3.42
2023-01-11T07:10:57.180Z,3.50
2023-01-11T07:13:24.742Z,4.03
2023-01-11T07:15:54.202Z,4.05
2023-01-11T07:18:21.885Z,5.18
2023-01-11T07:20:49.406Z,5.43
2023-01-11T07:23:16.959Z,5.78
2023-01-11T07:25:45.811Z,3.78
2023-01-11T07:28:13.405Z,5.47
2023-01-11T07:30:56.843Z,4.82
2023-01-11T07:33:26.751Z,4.95
2023-01-11T07:35:54.364Z,5.28
2023-01-11T07:38:22.208Z,4.60
2023-01-11T07:40:51.220Z,4.35
2023-01-11T07:43:19.677Z,3.90
2023-01-11T07:45:49.395Z,3.50
2023-01-11T07:48:20.937Z,3.85
2023-01-11T07:50:49.510Z,2.72
2023-01-11T07:53:18.964Z,2.92
2023-01-11T07:55:47.124Z,2.35
2023-01-11T07:58:16.668Z,2.33
2023-01-11T08:00:46.082Z,2.30
2023-01-11T08:03:13.913Z,2.28
2023-01-11T08:05:41.526Z,2.63
2023-01-11T08:08:09.401Z,2.40
2023-01-11T08:10:37.532Z,1.63
2023-01-11T08:13:25.595Z,1.92
2023-01-11T08:15:54.413Z,1.95
2023-01-11T08:18:21.983Z,1.98
2023-01-11T08:20:52.791Z,2.20
2023-01-11T08:23:20.512Z,2.33
2023-01-11T08:25:48.047Z,2.97
2023-01-11T08:28:15.538Z,2.50
2023-01-11T08:30:44.304Z,2.42
2023-01-11T08:33:13.199Z,1.63
2023-01-11T08:35:41.127Z,1.63
2023-01-11T08:38:08.676Z,1.50
2023-01-11T08:40:36.260Z,1.67
2023-01-11T08:43:04.124Z,1.70
2023-01-11T08:45:31.604Z,2.17
2023-01-11T08:48:00.943Z,2.00
2023-01-11T08:50:29.721Z,2.95
2023-01-11T08:52:57.278Z,3.88
2023-01-11T08:55:24.927Z,3.80
2023-01-11T08:57:52.402Z,4.22
2023-01-11T09:00:21.095Z,4.30
2023-01-11T09:02:48.644Z,4.50
2023-01-11T09:05:18.176Z,4.85
2023-01-11T09:07:47.546Z,4.20
2023-01-11T09:10:15.609Z,4.80
2023-01-11T09:12:43.079Z,5.20
2023-01-11T09:15:11.471Z,5.57
2023-01-11T09:17:39.287Z,5.95
2023-01-11T09:20:08.050Z,6.13
2023-01-11T09:22:35.761Z,6.70
2023-01-11T09:25:05.431Z,6.43
2023-01-11T09:27:33.280Z,5.90
2023-01-11T09:30:01.544Z,6.35
2023-01-11T09:32:29.055Z,6.63
2023-01-11T09:34:58.048Z,7.07
2023-01-11T09:37:26.006Z,4.70
2023-01-11T09:39:53.484Z,6.05
2023-01-11T09:42:32.272Z,5.72
2023-01-11T09:45:05.771Z,5.22
2023-01-11T09:47:38.536Z,4.15
2023-01-11T09:50:11.351Z,5.40
2023-01-11T09:52:42.160Z,5.45
2023-01-11T09:55:15.461Z,3.38
2023-01-11T09:57:51.922Z,5.18
2023-01-11T10:00:25.421Z,5.15
2023-01-11T10:03:15.413Z,4.32
2023-01-11T10:05:51.900Z,3.45
2023-01-11T10:18:26.033Z,2.92
2023-01-11T10:18:33.349Z,2.45
2023-01-11T10:20:21.284Z,2.15
2023-01-11T10:22:49.650Z,2.28
2023-01-11T10:25:23.591Z,1.73
2023-01-11T10:27:56.616Z,2.88
2023-01-11T10:30:41.788Z,2.20
2023-01-11T10:33:29.921Z,2.25
2023-01-11T10:36:13.536Z,1.92
2023-01-11T10:38:54.568Z,2.10
2023-01-11T10:41:33.820Z,1.90
2023-01-11T10:44:05.922Z,2.10
2023-01-11T10:46:39.622Z,2.17
2023-01-11T10:49:22.375Z,1.80
2023-01-11T10:51:50.293Z,2.13
2023-01-11T10:54:20.095Z,2.28
2023-01-11T10:57:03.260Z,2.13
2023-01-11T10:59:43.627Z,2.25
2023-01-11T11:02:22.175Z,2.10
2023-01-11T11:05:05.298Z,1.80
2023-01-11T11:07:38.422Z,1.38
2023-01-11T11:10:11.440Z,2.05
2023-01-11T11:12:43.630Z,1.58
2023-01-11T11:15:14.341Z,1.92
2023-01-11T11:17:47.944Z,1.80
2023-01-11T11:20:17.669Z,2.00
2023-01-11T11:22:45.960Z,2.08
2023-01-11T11:25:16.934Z,1.77
2023-01-11T11:27:46.095Z,1.90
2023-01-11T11:30:15.164Z,1.77
2023-01-11T11:32:53.364Z,1.83
2023-01-11T11:35:31.959Z,2.20
2023-01-11T11:37:59.700Z,1.80
2023-01-11T11:40:33.365Z,1.98
2023-01-11T11:43:19.252Z,2.47
2023-01-11T11:45:55.148Z,2.55
2023-01-11T11:48:25.120Z,2.55
2023-01-11T11:50:54.350Z,3.80
2023-01-11T11:53:30.200Z,3.88
2023-01-11T11:55:57.879Z,2.55
2023-01-11T11:58:26.672Z,11.32
2023-01-11T12:00:54.436Z,5.07
2023-01-11T12:03:28.267Z,10.98
2023-01-11T12:05:58.684Z,3.60
2023-01-11T12:08:26.274Z,3.38
2023-01-11T12:10:57.418Z,4.53
2023-01-11T12:13:28.218Z,2.40
2023-01-11T12:15:59.939Z,2.22
2023-01-11T12:18:32.844Z,1.50
2023-01-11T12:23:48.311Z,2.47
2023-01-11T12:26:22.551Z,4.85
2023-01-11T12:29:07.775Z,7.75
2023-01-11T12:31:43.692Z,5.30
2023-01-11T12:34:27.207Z,3.70
2023-01-11T12:36:59.616Z,3.13
2023-01-11T12:39:32.774Z,3.20
2023-01-11T12:42:08.679Z,3.55
2023-01-11T12:44:57.918Z,7.35
2023-01-11T12:47:45.816Z,4.50
2023-01-11T12:50:18.859Z,10.10
2023-01-11T12:52:56.861Z,4.80
2023-01-11T12:55:34.019Z,12.48
2023-01-11T12:58:08.309Z,6.43
2023-01-11T13:01:10.301Z,6.60
2023-01-11T13:03:46.369Z,4.40
2023-01-11T13:06:17.645Z,10.63
2023-01-11T13:08:53.169Z,15.98
2023-01-11T13:11:37.060Z,20.85
2023-01-11T13:14:15.745Z,16.33
2023-01-11T13:16:50.079Z,12.02
2023-01-11T13:19:20.416Z,10.88
2023-01-11T13:21:53.386Z,14.02
2023-01-11T13:24:26.458Z,4.25
2023-01-11T13:26:56.124Z,14.77
2023-01-11T13:29:26.886Z,26.40
2023-01-11T13:31:55.986Z,12.82
2023-01-11T13:34:25.994Z,60.60
2023-01-11T13:36:58.907Z,31.23
2023-01-11T13:41:59.226Z,3.60
2023-01-11T13:44:29.648Z,13.25
2023-01-11T13:47:01.716Z,14.93
2023-01-11T13:49:39.820Z,36.25
2023-01-11T13:52:13.476Z,22.77
2023-01-11T13:54:47.254Z,45.10
2023-01-11T13:57:20.071Z,28.98
2023-01-11T14:02:18.955Z,25.15
2023-01-11T14:04:51.811Z,13.48
2023-01-11T14:10:07.601Z,17.52
2023-01-11T14:12:48.408Z,10.70
2023-01-11T14:15:27.412Z,17.27
2023-01-11T14:18:09.214Z,10.88
2023-01-11T14:20:44.016Z,17.05
2023-01-11T14:23:14.536Z,18.83
2023-01-11T14:25:53.894Z,9.88
2023-01-11T14:28:35.668Z,9.65
2023-01-11T14:31:15.554Z,14.73
2023-01-11T14:33:58.323Z,18.95
2023-01-11T14:36:59.606Z,17.63
2023-01-11T14:39:59.407Z,11.88
2023-01-11T14:42:38.582Z,10.43
2023-01-11T14:45:26.422Z,8.85
2023-01-11T14:48:09.209Z,7.25
2023-01-11T14:50:45.894Z,6.15
2023-01-11T14:53:18.480Z,7.82
2023-01-11T14:55:49.077Z,6.95
2023-01-11T14:58:18.961Z,5.90
2023-01-11T15:01:06.308Z,5.95
2023-01-11T15:03:43.397Z,4.85
2023-01-11T15:06:14.706Z,5.78
2023-01-11T15:08:45.543Z,4.45
2023-01-11T15:11:35.866Z,4.63
2023-01-11T15:14:07.489Z,6.57
2023-01-11T15:16:53.766Z,3.90
2023-01-11T15:19:31.785Z,2.80
2023-01-11T15:22:02.744Z,3.30
2023-01-11T15:24:31.918Z,2.92
2023-01-11T15:27:02.261Z,2.35
2023-01-11T15:29:32.114Z,2.53
2023-01-11T15:32:15.170Z,2.92
2023-01-11T15:34:44.416Z,2.72
2023-01-11T15:37:29.147Z,2.08
2023-01-11T15:39:59.536Z,2.50
2023-01-11T15:43:11.412Z,2.40
2023-01-11T15:46:36.792Z,2.58
2023-01-11T15:49:49.429Z,3.05
2023-01-11T15:52:53.359Z,5.97
2023-01-11T15:55:59.700Z,5.10
2023-01-11T15:59:02.388Z,4.00
2023-01-11T16:01:30.357Z,3.40
2023-01-11T16:04:02.463Z,3.03
2023-01-11T16:06:43.946Z,3.33
2023-01-11T16:09:23.539Z,3.30
2023-01-11T16:11:55.450Z,2.92
2023-01-11T16:14:35.490Z,3.07
2023-01-11T16:17:03.635Z,2.67
2023-01-11T16:19:33.598Z,3.47
2023-01-11T16:22:05.409Z,3.22
2023-01-11T16:24:35.586Z,2.75
2023-01-11T16:27:04.591Z,2.22
2023-01-11T16:29:38.306Z,3.60
2023-01-11T16:32:07.845Z,2.78
2023-01-11T16:34:41.841Z,3.60
2023-01-11T16:37:21.212Z,5.05
2023-01-11T16:39:49.877Z,5.10
2023-01-11T16:42:17.424Z,4.55
2023-01-11T16:44:52.610Z,4.03
2023-01-11T16:47:21.543Z,4.05
2023-01-11T16:49:52.159Z,3.72
2023-01-11T16:52:52.744Z,5.07
2023-01-11T16:55:30.244Z,7.55
2023-01-11T16:58:00.715Z,6.68
2023-01-11T17:00:35.674Z,6.45
2023-01-11T17:03:19.401Z,3.88
2023-01-11T17:05:58.744Z,4.50
2023-01-11T17:08:29.407Z,3.92
2023-01-11T17:10:59.800Z,4.25
2023-01-11T17:13:55.743Z,4.15
2023-01-11T17:16:27.984Z,3.90
2023-01-11T17:18:56.029Z,4.40
2023-01-11T17:21:26.028Z,4.78
2023-01-11T17:23:54.980Z,4.28
2023-01-11T17:26:24.849Z,5.88
2023-01-11T17:28:55.783Z,4.43
2023-01-11T17:31:26.603Z,3.97
2023-01-11T17:34:03.315Z,3.72
2023-01-11T17:36:31.357Z,4.18
2023-01-11T17:38:59.129Z,4.10
2023-01-11T17:41:45.276Z,4.32
2023-01-11T17:44:35.353Z,4.13
2023-01-11T17:47:07.144Z,4.32
2023-01-11T17:49:35.643Z,3.83
2023-01-11T17:52:10.695Z,6.90
2023-01-11T17:54:38.157Z,10.52
2023-01-11T17:57:06.391Z,9.13
2023-01-11T17:59:34.506Z,6.55
2023-01-11T18:02:04.557Z,5.10
2023-01-11T18:04:32.506Z,5.13
2023-01-11T18:07:07.122Z,5.20
2023-01-11T18:09:37.641Z,5.53
2023-01-11T18:12:07.733Z,7.47
2023-01-11T18:14:40.321Z,7.43
2023-01-11T18:17:36.757Z,7.85
2023-01-11T18:20:37.894Z,6.47
2023-01-11T18:23:18.457Z,4.78
2023-01-11T18:25:46.795Z,6.72
2023-01-11T18:28:26.851Z,6.13
2023-01-11T18:30:57.829Z,7.30
2023-01-11T18:33:29.711Z,7.00
2023-01-11T18:35:59.677Z,5.30
2023-01-11T18:38:29.609Z,6.07
2023-01-11T18:40:58.620Z,8.10
2023-01-11T18:43:28.281Z,6.90
2023-01-11T18:45:56.303Z,8.52
2023-01-11T18:48:24.003Z,6.03
2023-01-11T18:50:54.526Z,15.77
2023-01-11T18:53:23.623Z,19.35
2023-01-11T18:55:51.124Z,9.68
2023-01-11T18:58:18.600Z,8.15
2023-01-11T19:00:46.078Z,6.38
2023-01-11T19:05:46.576Z,6.60
2023-01-11T19:08:15.584Z,6.80
2023-01-11T19:10:43.132Z,5.53
2023-01-11T19:13:10.777Z,4.68
2023-01-11T19:15:38.284Z,4.75
2023-01-11T19:18:05.993Z,4.13
2023-01-11T19:20:33.601Z,5.18
2023-01-11T19:23:01.074Z,4.80
2023-01-11T19:25:33.127Z,5.40
2023-01-11T19:28:00.656Z,4.90
2023-01-11T19:30:28.138Z,3.95
2023-01-11T19:32:55.793Z,5.15
2023-01-11T19:35:23.814Z,6.10
2023-01-11T19:37:51.766Z,5.53
2023-01-11T19:40:21.256Z,6.57
2023-01-11T19:42:52.313Z,6.35
2023-01-11T19:45:19.951Z,6.75
2023-01-11T19:47:47.981Z,6.68
2023-01-11T19:50:16.895Z,4.82
2023-01-11T19:52:45.050Z,4.90
2023-01-11T19:55:12.551Z,3.50
2023-01-11T19:57:41.441Z,5.07
2023-01-11T20:00:14.284Z,5.25
2023-01-11T20:02:42.289Z,4.72
2023-01-11T20:05:10.206Z,8.95
2023-01-11T20:07:37.718Z,6.43
2023-01-11T20:10:05.864Z,5.55
2023-01-11T20:12:33.375Z,7.10
2023-01-11T20:15:01.451Z,6.95
2023-01-11T20:17:30.318Z,5.75
2023-01-11T20:19:57.788Z,5.38
2023-01-11T20:22:25.666Z,4.95
2023-01-11T20:24:53.168Z,5.72
2023-01-11T20:27:20.768Z,5.28
2023-01-11T20:29:48.320Z,5.47
2023-01-11T20:32:39.087Z,5.82
2023-01-11T20:35:06.810Z,5.63
2023-01-11T20:37:34.517Z,5.55
2023-01-11T20:40:01.998Z,6.43
2023-01-11T20:42:29.518Z,12.85
2023-01-11T20:44:56.992Z,30.88
2023-01-11T20:47:25.119Z,18.40
2023-01-11T20:49:52.581Z,32.45
2023-01-11T20:52:21.370Z,6.40
2023-01-11T20:54:48.832Z,7.40
2023-01-11T20:57:16.311Z,13.52
2023-01-11T20:59:43.782Z,12.05
2023-01-11T21:02:13.509Z,10.93
2023-01-11T21:04:40.980Z,10.18
2023-01-11T21:07:08.470Z,8.95
2023-01-11T21:09:37.220Z,5.22
2023-01-11T21:12:05.182Z,7.75
2023-01-11T21:14:32.663Z,9.05
2023-01-11T21:17:00.142Z,7.80
2023-01-11T21:19:27.609Z,8.40
2023-01-11T21:21:55.090Z,7.13
2023-01-11T21:24:22.725Z,6.07
2023-01-11T21:26:51.634Z,4.85
2023-01-11T21:29:19.169Z,6.22
2023-01-11T21:31:46.686Z,5.35
2023-01-11T21:34:14.975Z,4.82
2023-01-11T21:36:43.782Z,4.40
2023-01-11T21:39:13.450Z,5.13
2023-01-11T21:41:55.994Z,5.63
2023-01-11T21:44:28.144Z,5.63
2023-01-11T21:46:55.824Z,5.72
2023-01-11T21:49:24.262Z,6.25
2023-01-11T21:51:52.177Z,6.07
2023-01-11T21:54:19.938Z,6.93
2023-01-11T21:56:48.066Z,5.85
2023-01-11T21:59:15.881Z,5.18
2023-01-11T22:01:49.076Z,5.97
2023-01-11T22:04:18.110Z,5.57
2023-01-11T22:06:50.956Z,5.20
2023-01-11T22:11:46.066Z,5.35
2023-01-11T22:14:13.530Z,5.32
2023-01-11T22:16:41.583Z,5.43
2023-01-11T22:19:10.423Z,5.03
2023-01-11T22:21:38.129Z,4.32
2023-01-11T22:24:08.899Z,4.90
2023-01-11T22:26:38.785Z,4.60
2023-01-11T22:29:14.759Z,5.25
2023-01-11T22:31:45.132Z,4.38
2023-01-11T22:34:14.747Z,4.70
2023-01-11T22:36:42.722Z,4.60
2023-01-11T22:39:10.381Z,4.18
2023-01-11T22:41:39.891Z,4.47
2023-01-11T22:44:07.788Z,5.00
2023-01-11T22:46:35.587Z,4.50
2023-01-11T22:49:03.144Z,4.30
2023-01-11T22:51:31.936Z,4.55
2023-01-11T22:53:59.467Z,4.10
2023-01-11T22:56:29.244Z,4.18
2023-01-11T22:58:58.340Z,3.72
2023-01-11T23:01:27.853Z,3.53
2023-01-11T23:03:57.003Z,4.47
2023-01-11T23:06:26.451Z,4.25
2023-01-11T23:08:55.737Z,4.85
2023-01-11T23:11:42.379Z,4.25
2023-01-11T23:14:11.462Z,4.35
2023-01-11T23:16:39.548Z,5.40
2023-01-11T23:19:08.702Z,4.15
2023-01-11T23:21:36.704Z,4.55
2023-01-11T23:24:06.450Z,4.13
2023-01-11T23:26:33.934Z,5.18
2023-01-11T23:29:01.416Z,5.60
2023-01-11T23:31:29.501Z,6.05
2023-01-11T23:33:58.996Z,4.32
2023-01-11T23:36:28.637Z,5.47
2023-01-11T23:38:56.098Z,4.20
2023-01-11T23:41:43.217Z,4.68
2023-01-11T23:44:12.611Z,4.13
2023-01-11T23:46:58.304Z,5.03
2023-01-11T23:49:26.078Z,4.72
2023-01-11T23:51:53.901Z,3.78
2023-01-11T23:54:21.546Z,4.00
2023-01-11T23:56:50.341Z,3.85
2023-01-11T23:59:17.861Z,3.50
